Time;durP1;ratioP1;P1;durP2;ratioP2;P2;SDS_P1;SDS_P2;PMS_P1;PMS_P2;Temp;Humidity;BMP_temperature;BMP_pressure;BME280_temperature;BME280_humidity;BME280_pressure;Samples;Min_cycle;Max_cycle;Signal;HPM_P1;HPM_P2
2019/04/21 00:01:07;;;;;;;23.9;14.9;;;;;;;10.58;48.04883;967.3414;;;;
2019/04/21 00:03:30;;;;;;;19.8;14.3;;;;;;;10.56;48.3125;967.3477;;;;
2019/04/21 00:05:55;;;;;;;19.6;14.2;;;;;;;10.55;48.23047;967.3189;;;;
2019/04/21 00:08:20;;;;;;;17.6;13.8;;;;;;;10.47;48.56836;967.3614;;;;
2019/04/21 00:10:45;;;;;;;23;14.8;;;;;;;10.42;49.33789;967.2045;;;;
2019/04/21 00:13:10;;;;;;;20;15.2;;;;;;;10.4;48.91992;967.2228;;;;
2019/04/21 00:15:35;;;;;;;22.2;15.5;;;;;;;10.39;48.86035;967.2708;;;;
2019/04/21 00:18:13;;;;;;;20.5;15.4;;;;;;;10.28;48.52441;967.2316;;;;
2019/04/21 00:20:27;;;;;;;20.7;15.1;;;;;;;10.2;48.28418;967.2188;;;;
2019/04/21 00:22:53;;;;;;;18.8;13.8;;;;;;;10.11;48.21582;967.2025;;;;
2019/04/21 00:25:18;;;;;;;20.8;14;;;;;;;10.06;48.07324;967.2455;;;;
2019/04/21 00:27:43;;;;;;;18.8;14.1;;;;;;;9.95;48.83398;967.1589;;;;
2019/04/21 00:30:08;;;;;;;20.1;14.3;;;;;;;9.84;49.14551;967.1188;;;;
2019/04/21 00:32:33;;;;;;;18;12.9;;;;;;;9.82;48.64648;967.1763;;;;
2019/04/21 00:35:00;;;;;;;18.7;13.5;;;;;;;9.82;49.53516;967.1211;;;;
2019/04/21 00:37:24;;;;;;;19.1;14.2;;;;;;;9.87;48.95117;967.0909;;;;
2019/04/21 00:39:49;;;;;;;20;14.7;;;;;;;9.79;49.52051;967.0989;;;;
2019/04/21 00:42:14;;;;;;;20.5;14.6;;;;;;;9.77;49.96875;967.0372;;;;
2019/04/21 00:44:39;;;;;;;21.2;15.6;;;;;;;9.73;50.42578;967.0626;;;;
2019/04/21 00:47:04;;;;;;;24.5;16.1;;;;;;;9.73;50.50684;967.0793;;;;
2019/04/21 00:49:33;;;;;;;19.9;15.4;;;;;;;9.73;50.7832;967.0706;;;;
2019/04/21 00:52:11;;;;;;;22.1;16.5;;;;;;;9.76;50.98438;967.046;;;;
2019/04/21 00:54:23;;;;;;;24.5;16.6;;;;;;;9.8;51.35742;966.9958;;;;
2019/04/21 00:56:47;;;;;;;24.6;16.6;;;;;;;9.83;51.48828;966.9246;;;;
2019/04/21 00:59:13;;;;;;;23.9;16.7;;;;;;;9.88;51.70215;966.9663;;;;
2019/04/21 01:01:38;;;;;;;22.8;17.5;;;;;;;9.89;51.91113;966.9313;;;;
2019/04/21 01:04:03;;;;;;;25.1;17.1;;;;;;;9.88;52.36035;966.9535;;;;
2019/04/21 01:06:28;;;;;;;27.1;18.5;;;;;;;9.81;52.9873;966.9389;;;;
2019/04/21 01:08:55;;;;;;;24.9;17.8;;;;;;;9.69;53.23828;966.9644;;;;
2019/04/21 01:11:22;;;;;;;24.8;17.7;;;;;;;9.58;53.72168;966.9534;;;;
2019/04/21 01:13:49;;;;;;;24.3;17.9;;;;;;;9.54;54.27051;966.8728;;;;
2019/04/21 01:16:16;;;;;;;23.3;16.9;;;;;;;9.54;54.08594;966.924;;;;
2019/04/21 01:18:40;;;;;;;23.2;16.4;;;;;;;9.57;53.75391;966.913;;;;
2019/04/21 01:21:05;;;;;;;22.4;16.4;;;;;;;9.58;53.45508;966.9583;;;;
2019/04/21 01:23:31;;;;;;;23.9;15.6;;;;;;;9.64;53.27832;966.8842;;;;
2019/04/21 01:25:56;;;;;;;20.1;15.4;;;;;;;9.69;52.81055;966.8837;;;;
2019/04/21 01:28:25;;;;;;;24.2;15.6;;;;;;;9.67;52.91309;966.9236;;;;
2019/04/21 01:30:50;;;;;;;21.1;15.4;;;;;;;9.67;53.00586;966.8636;;;;
2019/04/21 01:33:15;;;;;;;20.5;15.3;;;;;;;9.7;52.69727;966.937;;;;
2019/04/21 01:35:40;;;;;;;21;15.1;;;;;;;9.71;52.43164;966.8132;;;;
2019/04/21 01:38:06;;;;;;;20.5;14.9;;;;;;;9.64;52.10156;966.8923;;;;
2019/04/21 01:40:33;;;;;;;20.4;15.2;;;;;;;9.61;51.50879;966.8234;;;;
2019/04/21 01:42:58;;;;;;;20.2;15.4;;;;;;;9.63;51.42969;966.8937;;;;
2019/04/21 01:45:23;;;;;;;22.2;15.4;;;;;;;9.62;51.37109;966.8267;;;;
2019/04/21 01:47:48;;;;;;;21.6;15.6;;;;;;;9.57;52.38086;966.8531;;;;
2019/04/21 01:50:13;;;;;;;20.8;15.7;;;;;;;9.46;53.19824;966.8136;;;;
2019/04/21 01:52:43;;;;;;;26.2;15.6;;;;;;;9.46;53.19824;966.8723;;;;
2019/04/21 01:55:19;;;;;;;20.9;14.5;;;;;;;9.46;52.5293;966.8775;;;;
2019/04/21 01:59:54;;;;;;;22.5;14.9;;;;;;;9.2;53.21289;966.9244;;;;
2019/04/21 02:02:19;;;;;;;20.1;14.7;;;;;;;9.18;53.28027;966.8539;;;;
2019/04/21 02:04:44;;;;;;;23.5;15.5;;;;;;;9.01;53.99707;966.8705;;;;
2019/04/21 02:07:09;;;;;;;21;13.8;;;;;;;8.97;54.03711;966.7732;;;;
2019/04/21 02:09:34;;;;;;;20.9;14.8;;;;;;;8.75;54.93066;966.7648;;;;
2019/04/21 02:12:00;;;;;;;20.5;15.3;;;;;;;8.6;54.93457;966.759;;;;
2019/04/21 02:14:26;;;;;;;20.8;14.5;;;;;;;8.64;54.85938;966.6868;;;;
2019/04/21 02:16:52;;;;;;;21.7;14.1;;;;;;;8.65;54.23926;966.7539;;;;
2019/04/21 02:19:17;;;;;;;18.4;14;;;;;;;8.61;54.00391;966.7408;;;;
2019/04/21 02:21:42;;;;;;;23.5;14;;;;;;;8.6;53.83008;966.7032;;;;
2019/04/21 02:24:07;;;;;;;19.3;13.6;;;;;;;8.58;54.24121;966.6631;;;;
2019/04/21 02:26:32;;;;;;;22.2;14.6;;;;;;;8.41;55.31348;966.6838;;;;
2019/04/21 02:28:57;;;;;;;22.6;14.2;;;;;;;8.35;55.22559;966.6727;;;;
2019/04/21 02:31:22;;;;;;;19.2;13.8;;;;;;;8.38;54.08984;966.6228;;;;
2019/04/21 02:33:47;;;;;;;18.1;14.4;;;;;;;8.39;54.08008;966.6603;;;;
2019/04/21 02:36:12;;;;;;;19.1;14.1;;;;;;;8.39;54.13574;966.6053;;;;
2019/04/21 02:38:37;;;;;;;18.7;14.2;;;;;;;8.31;52.78125;966.5695;;;;
2019/04/21 02:41:03;;;;;;;15.2;13.6;;;;;;;8.25;51.64551;966.4821;;;;
2019/04/21 02:43:28;;;;;;;22.1;15;;;;;;;8.16;52.86621;966.5204;;;;
2019/04/21 02:45:53;;;;;;;18.1;13.9;;;;;;;8.06;53.01465;966.5173;;;;
2019/04/21 02:48:18;;;;;;;20.8;14.7;;;;;;;7.88;55.07324;966.4966;;;;
2019/04/21 02:50:43;;;;;;;21.5;16.6;;;;;;;7.63;57.56934;966.4352;;;;
2019/04/21 02:53:08;;;;;;;22.2;16.5;;;;;;;7.6;58.09375;966.4431;;;;
2019/04/21 02:55:34;;;;;;;23.8;16.9;;;;;;;7.58;57.97656;966.4103;;;;
2019/04/21 02:58:02;;;;;;;22;15.9;;;;;;;7.54;58.82031;966.3596;;;;
2019/04/21 03:02:57;;;;;;;19.4;15.7;;;;;;;7.45;59.12988;966.334;;;;
2019/04/21 03:07:42;;;;;;;23.1;16.3;;;;;;;7.61;56.7959;966.2849;;;;
2019/04/21 03:10:07;;;;;;;20.1;15.9;;;;;;;7.61;56.72754;966.2808;;;;
2019/04/21 03:12:32;;;;;;;21.3;15.7;;;;;;;7.57;56.91797;966.2589;;;;
2019/04/21 03:14:57;;;;;;;18.7;14.7;;;;;;;7.5;57.17285;966.1724;;;;
2019/04/21 03:17:22;;;;;;;21.6;16;;;;;;;7.5;57.29883;966.1633;;;;
2019/04/21 03:19:48;;;;;;;21;16;;;;;;;7.45;58.49902;966.1677;;;;
2019/04/21 03:22:14;;;;;;;25.9;16.1;;;;;;;7.39;59.20313;966.1526;;;;
2019/04/21 03:24:39;;;;;;;22.1;15;;;;;;;7.4;57.90625;966.0708;;;;
2019/04/21 03:27:04;;;;;;;20.5;15.7;;;;;;;7.44;57.09668;966.0244;;;;
2019/04/21 03:29:30;;;;;;;21.6;15.6;;;;;;;7.48;56.69824;965.9961;;;;
2019/04/21 03:31:54;;;;;;;19.1;15.4;;;;;;;7.44;56.86621;965.9614;;;;
2019/04/21 03:34:19;;;;;;;20.5;15.3;;;;;;;7.43;56.86621;965.9828;;;;
2019/04/21 03:36:45;;;;;;;21.6;15.3;;;;;;;7.34;57.65625;965.9668;;;;
2019/04/21 03:39:10;;;;;;;20.7;15.2;;;;;;;7.23;58.20508;965.9219;;;;
2019/04/21 03:41:37;;;;;;;23;15.3;;;;;;;7.3;57.4209;965.9194;;;;
2019/04/21 03:44:02;;;;;;;22.9;15.9;;;;;;;7.32;57.72266;965.934;;;;
2019/04/21 03:46:27;;;;;;;19.2;15.5;;;;;;;7.34;58.66699;965.9031;;;;
2019/04/21 03:48:52;;;;;;;24.8;15.7;;;;;;;7.34;58.21973;965.8602;;;;
2019/04/21 03:51:17;;;;;;;18.9;15.9;;;;;;;7.34;58.97754;965.8267;;;;
2019/04/21 03:53:43;;;;;;;21.6;17;;;;;;;7.21;59.87891;965.8254;;;;
2019/04/21 03:56:08;;;;;;;19.1;14.5;;;;;;;7.22;56.53809;965.8335;;;;
2019/04/21 03:58:35;;;;;;;22.8;14.8;;;;;;;7.16;54.32715;965.8136;;;;
2019/04/21 04:02:48;;;;;;;20.6;16.6;;;;;;;6.92;57.99023;965.8447;;;;
2019/04/21 04:05:41;;;;;;;22;16;;;;;;;6.78;57.90234;965.8365;;;;
2019/04/21 04:07:23;;;;;;;24.1;16.9;;;;;;;6.63;58.99414;965.88;;;;
2019/04/21 04:09:43;;;;;;;24.2;17.5;;;;;;;6.52;59.83887;965.8516;;;;
2019/04/21 04:12:08;;;;;;;24.9;17.8;;;;;;;6.54;59.34961;965.8622;;;;
2019/04/21 04:14:35;;;;;;;24.2;18.3;;;;;;;6.44;59.49609;965.787;;;;
2019/04/21 04:17:00;;;;;;;23.7;17.1;;;;;;;6.4;59.35156;965.8166;;;;
2019/04/21 04:19:25;;;;;;;23;16.9;;;;;;;6.46;59.29297;965.8188;;;;
2019/04/21 04:21:50;;;;;;;22.9;17.4;;;;;;;6.54;59.19922;965.8416;;;;
2019/04/21 04:24:16;;;;;;;23.8;18.7;;;;;;;6.61;58.54395;965.8773;;;;
2019/04/21 04:26:41;;;;;;;27.5;20.2;;;;;;;6.62;58.63867;965.8973;;;;
2019/04/21 04:29:08;;;;;;;24.5;18.5;;;;;;;6.61;58.5332;965.9496;;;;
2019/04/21 04:31:33;;;;;;;27.8;18.4;;;;;;;6.53;57.9043;965.8717;;;;
2019/04/21 04:33:58;;;;;;;25.3;19.3;;;;;;;6.42;58.30078;965.9202;;;;
2019/04/21 04:36:25;;;;;;;25.9;19.5;;;;;;;6.36;58.85352;965.9089;;;;
2019/04/21 04:39:07;;;;;;;23.5;18.3;;;;;;;6.37;58.91211;965.8995;;;;
2019/04/21 04:43:05;;;;;;;24.9;18.1;;;;;;;6.38;59.23535;965.8688;;;;
2019/04/21 04:43:41;;;;;;;24.3;18.5;;;;;;;6.4;59.19141;965.9476;;;;
2019/04/21 04:46:06;;;;;;;25.9;18.4;;;;;;;6.37;59.77148;965.933;;;;
2019/04/21 04:48:31;;;;;;;24.5;18.4;;;;;;;6.43;60.06836;965.9149;;;;
2019/04/21 04:50:56;;;;;;;22.6;18;;;;;;;6.5;61.0957;965.8918;;;;
2019/04/21 04:53:21;;;;;;;23.7;18.3;;;;;;;6.55;62.49023;965.9045;;;;
2019/04/21 04:55:52;;;;;;;25.7;17.8;;;;;;;6.62;62.55957;965.868;;;;
2019/04/21 04:58:17;;;;;;;23.2;18.5;;;;;;;6.68;62.41797;965.8331;;;;
2019/04/21 05:00:43;;;;;;;24.7;17.8;;;;;;;6.76;61.98242;965.7958;;;;
2019/04/21 05:03:10;;;;;;;23.8;17.7;;;;;;;6.82;61.87695;965.8195;;;;
2019/04/21 05:05:41;;;;;;;23;17.3;;;;;;;6.88;61.72559;965.7758;;;;
2019/04/21 05:08:06;;;;;;;22;17.8;;;;;;;6.93;61.53613;965.7801;;;;
2019/04/21 05:10:31;;;;;;;21.7;16.9;;;;;;;7;61.19141;965.8161;;;;
2019/04/21 05:13:00;;;;;;;24.1;17.3;;;;;;;7.06;61.10645;965.8571;;;;
2019/04/21 05:15:26;;;;;;;19.7;15.9;;;;;;;7.19;60.33398;965.8705;;;;
2019/04/21 05:17:51;;;;;;;23.4;16.6;;;;;;;7.35;59.23242;965.8675;;;;
2019/04/21 05:20:16;;;;;;;25.2;16.7;;;;;;;7.49;60.04199;965.9484;;;;
2019/04/21 05:22:41;;;;;;;23.5;16.3;;;;;;;7.63;59.6377;965.8914;;;;
2019/04/21 05:25:06;;;;;;;21.1;16.5;;;;;;;7.79;58.26953;965.9614;;;;
2019/04/21 05:27:31;;;;;;;21.6;16.8;;;;;;;7.96;57.01465;965.9158;;;;
2019/04/21 05:29:59;;;;;;;21.5;16.3;;;;;;;8.07;56.02832;965.8839;;;;
2019/04/21 05:32:33;;;;;;;23.9;17.2;;;;;;;8.21;57.22168;965.8736;;;;
2019/04/21 05:34:50;;;;;;;22.6;18.3;;;;;;;8.27;61.77441;965.945;;;;
2019/04/21 05:37:32;;;;;;;24.9;19;;;;;;;8.34;62.39551;965.8867;;;;
2019/04/21 05:39:40;;;;;;;24.3;18.7;;;;;;;8.39;60.88184;965.8528;;;;
2019/04/21 05:42:02;;;;;;;24.6;19;;;;;;;8.44;61.00586;965.7916;;;;
2019/04/21 05:44:28;;;;;;;25;18.5;;;;;;;8.48;60.51563;965.7664;;;;
2019/04/21 05:46:53;;;;;;;27.8;18.9;;;;;;;8.58;61.1875;965.7908;;;;
2019/04/21 05:49:23;;;;;;;25.8;19.5;;;;;;;8.66;60.81738;965.7575;;;;
2019/04/21 05:51:43;;;;;;;23.4;17.6;;;;;;;8.73;56.93359;965.7294;;;;
2019/04/21 05:54:08;;;;;;;23.5;17.9;;;;;;;8.81;57.2207;965.7296;;;;
2019/04/21 05:56:37;;;;;;;22.8;18.4;;;;;;;8.94;58.36621;965.8147;;;;
2019/04/21 05:59:02;;;;;;;20.5;17.2;;;;;;;9.06;58.12988;965.7888;;;;
2019/04/21 06:01:29;;;;;;;21.5;16;;;;;;;9.17;55.22754;965.7053;;;;
2019/04/21 06:03:54;;;;;;;21;16.9;;;;;;;9.29;54.76953;965.8125;;;;
2019/04/21 06:06:23;;;;;;;32.9;23.1;;;;;;;9.45;54.15527;965.813;;;;
2019/04/21 06:08:48;;;;;;;77.3;57.3;;;;;;;9.59;54.28906;965.8025;;;;
2019/04/21 06:11:14;;;;;;;23.6;16.4;;;;;;;9.71;51.6582;965.7267;;;;
2019/04/21 06:13:39;;;;;;;21.2;17.4;;;;;;;9.88;50.59473;965.7253;;;;
2019/04/21 06:16:04;;;;;;;21.9;15.4;;;;;;;9.98;48.07617;965.7404;;;;
2019/04/21 06:18:33;;;;;;;19.2;15.1;;;;;;;10.15;48.13965;965.752;;;;
2019/04/21 06:20:59;;;;;;;21.3;15;;;;;;;10.28;47.77344;965.7003;;;;
2019/04/21 06:23:24;;;;;;;20.4;15.4;;;;;;;10.53;48.86621;965.7797;;;;
2019/04/21 06:25:49;;;;;;;19;14.3;;;;;;;10.7;47.21875;965.749;;;;
2019/04/21 06:28:15;;;;;;;19.3;14.5;;;;;;;10.82;46.58203;965.7277;;;;
2019/04/21 06:30:40;;;;;;;17.8;13.4;;;;;;;10.9;46.00098;965.6545;;;;
2019/04/21 06:33:05;;;;;;;14.4;12.6;;;;;;;10.99;45.44336;965.7133;;;;
2019/04/21 06:35:51;;;;;;;19.5;13.1;;;;;;;11.08;44.71094;965.6559;;;;
2019/04/21 06:37:57;;;;;;;24.4;17.6;;;;;;;11.19;47.57227;965.6481;;;;
2019/04/21 06:40:21;;;;;;;138.9;102.6;;;;;;;11.32;45.19922;965.6851;;;;
2019/04/21 06:42:46;;;;;;;52.2;36.1;;;;;;;11.45;44.13477;965.6835;;;;
2019/04/21 06:45:14;;;;;;;17.5;14.5;;;;;;;11.53;42.77539;965.6231;;;;
2019/04/21 06:47:56;;;;;;;15.9;12;;;;;;;11.52;42.41504;965.5903;;;;
2019/04/21 06:50:29;;;;;;;18;12.5;;;;;;;11.73;43.21191;965.6175;;;;
2019/04/21 06:52:57;;;;;;;29.5;20.8;;;;;;;11.91;49.27637;965.5762;;;;
2019/04/21 06:55:23;;;;;;;35.9;27.7;;;;;;;12.23;41.87988;965.6386;;;;
2019/04/21 06:57:47;;;;;;;15.8;12;;;;;;;12.38;41.33691;965.7018;;;;
2019/04/21 07:00:13;;;;;;;14.6;11.1;;;;;;;12.54;41.00293;965.6586;;;;
2019/04/21 07:02:38;;;;;;;14.8;11.2;;;;;;;12.68;39.81934;965.6716;;;;
2019/04/21 07:05:03;;;;;;;14.6;10.9;;;;;;;12.74;40.85938;965.6691;;;;
2019/04/21 07:07:28;;;;;;;16.7;10.9;;;;;;;12.91;39.61914;965.6705;;;;
2019/04/21 07:10:18;;;;;;;14.3;10.8;;;;;;;13.05;40.16699;965.6838;;;;
2019/04/21 07:12:48;;;;;;;15.8;11.2;;;;;;;13.15;40.38672;965.616;;;;
2019/04/21 07:15:14;;;;;;;15.2;11.4;;;;;;;13.24;40.5459;965.5756;;;;
2019/04/21 07:17:40;;;;;;;15.6;11;;;;;;;13.32;40.62207;965.5447;;;;
2019/04/21 07:20:13;;;;;;;16.9;11.6;;;;;;;13.39;41.39746;965.5276;;;;
2019/04/21 07:22:37;;;;;;;13.6;10.6;;;;;;;13.56;39.94629;965.4473;;;;
2019/04/21 07:25:02;;;;;;;15;11.1;;;;;;;13.66;40.48047;965.4481;;;;
2019/04/21 07:27:31;;;;;;;13.5;11;;;;;;;13.81;40.33008;965.4861;;;;
2019/04/21 07:30:00;;;;;;;15;11.2;;;;;;;13.96;39.76172;965.4894;;;;
2019/04/21 07:34:56;;;;;;;16.7;12;;;;;;;14.19;40.44727;965.4472;;;;
2019/04/21 07:37:22;;;;;;;17.4;12;;;;;;;14.36;40.67188;965.3543;;;;
2019/04/21 07:39:46;;;;;;;17.2;13.3;;;;;;;14.5;40.2666;965.4051;;;;
2019/04/21 07:42:12;;;;;;;20.6;14.8;;;;;;;14.67;40.67871;965.3879;;;;
2019/04/21 07:44:38;;;;;;;19.9;15.1;;;;;;;14.84;39.62012;965.4484;;;;
2019/04/21 07:47:07;;;;;;;16.2;13;;;;;;;14.99;39.99609;965.3608;;;;
2019/04/21 07:49:34;;;;;;;14.5;11.3;;;;;;;15.12;39.52832;965.3312;;;;
2019/04/21 07:52:14;;;;;;;14.1;10.9;;;;;;;15.26;40.3125;965.3862;;;;
2019/04/21 07:54:18;;;;;;;13.2;10.6;;;;;;;15.36;39.15234;965.3784;;;;
2019/04/21 07:56:43;;;;;;;12.6;9;;;;;;;15.61;38.45996;965.4239;;;;
2019/04/21 07:59:08;;;;;;;12.5;10.2;;;;;;;15.81;43.17285;965.3727;;;;
2019/04/21 08:01:35;;;;;;;13.6;10.3;;;;;;;16.15;38.95313;965.3666;;;;
2019/04/21 08:04:01;;;;;;;15.7;10.4;;;;;;;16.56;41.78125;965.3209;;;;
2019/04/21 08:06:26;;;;;;;14.4;9.9;;;;;;;16.97;37.61719;965.3475;;;;
2019/04/21 08:08:52;;;;;;;16.4;9.5;;;;;;;17.33;38.31738;965.3199;;;;
2019/04/21 08:11:21;;;;;;;13.5;9.8;;;;;;;17.6;37.03613;965.2925;;;;
2019/04/21 08:13:48;;;;;;;14.9;9.5;;;;;;;17.8;36.09961;965.1956;;;;
2019/04/21 08:16:11;;;;;;;12.4;9.5;;;;;;;17.94;36.13574;965.2882;;;;
